Time;durP1;ratioP1;P1;durP2;ratioP2;P2;SDS_P1;SDS_P2;PMS_P1;PMS_P2;Temp;Humidity;BMP_temperature;BMP_pressure;BME280_temperature;BME280_humidity;BME280_pressure;Samples;Min_cycle;Max_cycle;Signal;HPM_P1;HPM_P2
2024/01/18 00:01:01;;;;;;;21.83;11.90;;;;;;;;;;5063112;27;100234;-75
2024/01/18 00:03:28;;;;;;;25.58;11.60;;;;;;;;;;5052279;27;100083;-76
2024/01/18 00:05:54;;;;;;;16.92;11.63;;;;;;;;;;5054527;27;100833;-75
2024/01/18 00:08:21;;;;;;;14.32;11.05;;;;;;;;;;5069531;27;99806;-75
2024/01/18 00:10:47;;;;;;;18.42;12.05;;;;;;;;;;5051030;27;100836;-75
2024/01/18 00:13:14;;;;;;;16.35;11.65;;;;;;;;;;5053739;27;100117;-74
2024/01/18 00:15:41;;;;;;;21.02;10.95;;;;;;;;;;5048013;27;100644;-75
2024/01/18 00:18:07;;;;;;;13.57;11.57;;;;;;;;;;5046815;27;100607;-75
2024/01/18 00:20:35;;;;;;;15.23;11.13;;;;;;;;;;5055217;27;99988;-76
2024/01/18 00:23:02;;;;;;;20.15;11.52;;;;;;;;;;5055636;27;99983;-76
2024/01/18 00:25:28;;;;;;;17.90;10.40;;;;;;;;;;5068358;27;100243;-75
2024/01/18 00:27:54;;;;;;;24.75;11.82;;;;;;;;;;5066628;27;99015;-75
2024/01/18 00:30:21;;;;;;;15.55;11.38;;;;;;;;;;5070605;27;101302;-75
2024/01/18 00:32:48;;;;;;;16.65;11.43;;;;;;;;;;5065802;27;98950;-75
2024/01/18 00:35:14;;;;;;;20.08;10.93;;;;;;;;;;5062652;27;99088;-75
2024/01/18 00:37:41;;;;;;;14.35;10.02;;;;;;;;;;5064588;27;100221;-75
2024/01/18 00:40:07;;;;;;;14.88;10.38;;;;;;;;;;5067507;27;99909;-75
2024/01/18 00:42:34;;;;;;;13.73;11.10;;;;;;;;;;5067147;27;100208;-75
2024/01/18 00:45:00;;;;;;;22.77;11.25;;;;;;;;;;5067651;27;100649;-76
2024/01/18 00:47:27;;;;;;;16.65;10.93;;;;;;;;;;5067437;27;100177;-76
2024/01/18 00:49:53;;;;;;;15.82;9.07;;;;;;;;;;5066146;27;99551;-76
2024/01/18 00:52:20;;;;;;;19.13;10.23;;;;;;;;;;5068006;27;100158;-75
2024/01/18 00:54:46;;;;;;;26.08;10.52;;;;;;;;;;5067112;27;100389;-75
2024/01/18 00:57:13;;;;;;;13.07;9.23;;;;;;;;;;5066560;27;100353;-76
2024/01/18 00:59:39;;;;;;;13.77;9.85;;;;;;;;;;5067357;27;100154;-75
2024/01/18 01:02:06;;;;;;;17.63;9.40;;;;;;;;;;5067489;27;100191;-74
2024/01/18 01:04:32;;;;;;;12.23;8.15;;;;;;;;;;5065974;27;99898;-75
2024/01/18 01:06:59;;;;;;;22.23;9.13;;;;;;;;;;5065642;27;100186;-75
2024/01/18 01:09:25;;;;;;;20.38;7.25;;;;;;;;;;5062197;27;100801;-75
2024/01/18 01:11:52;;;;;;;9.30;7.53;;;;;;;;;;5054784;27;99485;-75
2024/01/18 01:14:18;;;;;;;10.50;7.53;;;;;;;;;;5066337;27;99693;-74
2024/01/18 01:16:45;;;;;;;11.55;8.38;;;;;;;;;;5058245;27;100188;-75
2024/01/18 01:19:11;;;;;;;10.45;7.93;;;;;;;;;;5049623;27;99319;-75
2024/01/18 01:21:38;;;;;;;10.75;6.75;;;;;;;;;;5066607;27;100870;-75
2024/01/18 01:24:04;;;;;;;10.68;7.35;;;;;;;;;;5064559;27;99992;-75
2024/01/18 01:26:31;;;;;;;9.40;7.40;;;;;;;;;;5065126;27;100106;-76
2024/01/18 01:28:57;;;;;;;10.25;6.80;;;;;;;;;;5063084;27;99916;-75
2024/01/18 01:31:24;;;;;;;17.23;8.98;;;;;;;;;;5056648;27;100189;-75
2024/01/18 01:33:50;;;;;;;8.45;7.50;;;;;;;;;;5064522;27;99161;-75
2024/01/18 01:36:17;;;;;;;9.55;6.90;;;;;;;;;;5049617;27;99799;-75
2024/01/18 01:38:43;;;;;;;19.35;8.45;;;;;;;;;;5046532;27;100052;-76
2024/01/18 01:41:10;;;;;;;9.95;7.63;;;;;;;;;;5056511;27;99975;-76
2024/01/18 01:43:36;;;;;;;14.00;6.53;;;;;;;;;;5047703;27;100935;-75
2024/01/18 01:46:03;;;;;;;16.85;6.32;;;;;;;;;;5057522;27;99845;-75
2024/01/18 01:48:30;;;;;;;8.20;6.30;;;;;;;;;;5057128;27;99995;-76
2024/01/18 01:50:57;;;;;;;22.13;7.40;;;;;;;;;;5065752;27;100337;-76
2024/01/18 01:53:23;;;;;;;14.45;7.35;;;;;;;;;;5064842;27;99881;-75
2024/01/18 01:55:50;;;;;;;11.27;5.97;;;;;;;;;;5059943;27;100021;-75
2024/01/18 01:58:17;;;;;;;8.73;6.55;;;;;;;;;;5048091;27;99921;-74
2024/01/18 02:00:44;;;;;;;8.38;6.97;;;;;;;;;;5064773;27;99909;-75
2024/01/18 02:03:11;;;;;;;6.85;5.68;;;;;;;;;;5065536;27;100409;-75
2024/01/18 02:05:38;;;;;;;8.25;6.07;;;;;;;;;;5063473;27;99179;-75
2024/01/18 02:08:05;;;;;;;7.53;6.45;;;;;;;;;;5058253;27;99813;-75
2024/01/18 02:10:31;;;;;;;9.32;5.90;;;;;;;;;;5056981;27;99454;-76
2024/01/18 02:12:58;;;;;;;8.60;5.65;;;;;;;;;;5057029;27;99894;-76
2024/01/18 02:15:24;;;;;;;5.78;5.25;;;;;;;;;;5046552;27;99802;-75
2024/01/18 02:17:51;;;;;;;5.32;4.43;;;;;;;;;;5055933;27;100317;-75
2024/01/18 02:20:17;;;;;;;12.10;5.57;;;;;;;;;;5065278;27;100121;-75
2024/01/18 02:22:44;;;;;;;10.60;5.00;;;;;;;;;;5050945;27;100621;-75
2024/01/18 02:25:14;;;;;;;5.38;4.60;;;;;;;;;;5064386;27;99859;-75
2024/01/18 02:27:40;;;;;;;8.63;5.45;;;;;;;;;;5058251;27;100498;-75
2024/01/18 02:30:07;;;;;;;5.28;4.25;;;;;;;;;;5048771;27;100341;-75
2024/01/18 02:32:34;;;;;;;6.45;5.32;;;;;;;;;;5045178;27;99720;-75
2024/01/18 02:35:00;;;;;;;7.07;5.57;;;;;;;;;;5052983;27;99773;-75
2024/01/18 02:37:27;;;;;;;7.00;5.65;;;;;;;;;;5045933;27;100224;-75
2024/01/18 02:39:53;;;;;;;6.45;5.22;;;;;;;;;;5049279;27;99910;-75
2024/01/18 02:42:20;;;;;;;11.93;5.35;;;;;;;;;;5062717;27;100092;-75
2024/01/18 02:44:47;;;;;;;6.35;5.03;;;;;;;;;;5059193;27;99997;-75
2024/01/18 02:47:13;;;;;;;6.72;3.92;;;;;;;;;;5066150;27;100007;-75
2024/01/18 02:49:40;;;;;;;6.82;5.10;;;;;;;;;;5067818;27;98722;-76
2024/01/18 02:52:06;;;;;;;5.95;3.83;;;;;;;;;;5054134;27;100032;-76
2024/01/18 02:54:33;;;;;;;4.53;4.10;;;;;;;;;;5066460;27;99984;-75
2024/01/18 02:56:59;;;;;;;12.60;5.13;;;;;;;;;;5065776;27;101596;-75
2024/01/18 02:59:26;;;;;;;10.10;5.07;;;;;;;;;;5052663;27;99900;-74
2024/01/18 03:01:52;;;;;;;5.88;5.03;;;;;;;;;;5067235;27;99882;-75
2024/01/18 03:04:19;;;;;;;11.07;5.15;;;;;;;;;;5068293;27;99938;-75
2024/01/18 03:06:46;;;;;;;4.18;3.88;;;;;;;;;;5066976;27;100300;-74
2024/01/18 03:09:12;;;;;;;5.90;4.82;;;;;;;;;;5052814;27;100384;-75
2024/01/18 03:11:39;;;;;;;4.82;4.45;;;;;;;;;;5069400;27;99939;-75
2024/01/18 03:14:05;;;;;;;4.97;4.55;;;;;;;;;;5067956;27;99960;-75
2024/01/18 03:16:32;;;;;;;4.57;3.60;;;;;;;;;;5065500;27;100515;-76
2024/01/18 03:18:58;;;;;;;4.95;4.45;;;;;;;;;;5067757;27;99978;-76
2024/01/18 03:21:25;;;;;;;4.20;3.80;;;;;;;;;;5067662;27;100492;-74
2024/01/18 03:23:51;;;;;;;5.30;3.67;;;;;;;;;;5063054;27;99256;-75
2024/01/18 03:26:18;;;;;;;4.15;3.85;;;;;;;;;;5059658;27;99148;-75
2024/01/18 03:28:44;;;;;;;4.20;3.80;;;;;;;;;;5068690;27;100169;-74
2024/01/18 03:31:12;;;;;;;4.10;3.75;;;;;;;;;;5065859;27;99852;-74
2024/01/18 03:33:38;;;;;;;6.45;3.80;;;;;;;;;;5062803;27;101955;-75
2024/01/18 03:36:05;;;;;;;7.60;3.38;;;;;;;;;;5048420;27;100250;-75
2024/01/18 03:38:32;;;;;;;3.58;3.15;;;;;;;;;;5055373;27;99917;-74
2024/01/18 03:40:58;;;;;;;3.20;3.00;;;;;;;;;;5049296;27;99394;-75
2024/01/18 03:43:25;;;;;;;7.85;3.45;;;;;;;;;;5065386;27;100243;-75
2024/01/18 03:45:51;;;;;;;10.40;3.72;;;;;;;;;;5050407;27;100459;-75
2024/01/18 03:48:18;;;;;;;3.30;3.10;;;;;;;;;;5055894;27;100158;-75
2024/01/18 03:50:44;;;;;;;11.18;3.60;;;;;;;;;;5048416;27;100129;-74
2024/01/18 03:53:11;;;;;;;3.65;3.25;;;;;;;;;;5047544;27;99901;-74
2024/01/18 03:55:38;;;;;;;4.05;3.15;;;;;;;;;;5067529;27;100155;-75
2024/01/18 03:58:04;;;;;;;4.60;2.88;;;;;;;;;;5066251;27;99915;-75
2024/01/18 04:00:31;;;;;;;3.97;2.92;;;;;;;;;;5068120;27;100053;-75
2024/01/18 04:02:58;;;;;;;4.00;2.88;;;;;;;;;;5067818;27;99462;-75
2024/01/18 04:05:25;;;;;;;6.07;2.88;;;;;;;;;;5059001;27;100346;-74
2024/01/18 04:07:51;;;;;;;4.35;2.88;;;;;;;;;;5048031;27;100287;-74
2024/01/18 04:10:18;;;;;;;4.63;3.40;;;;;;;;;;5047640;27;99870;-75
2024/01/18 04:12:44;;;;;;;4.72;3.35;;;;;;;;;;5046783;27;100720;-75
2024/01/18 04:15:11;;;;;;;7.35;4.00;;;;;;;;;;5050800;27;100246;-75
2024/01/18 04:17:37;;;;;;;4.88;3.65;;;;;;;;;;5048085;27;100199;-75
2024/01/18 04:20:06;;;;;;;9.73;4.60;;;;;;;;;;5058467;27;100163;-75
2024/01/18 04:22:32;;;;;;;4.20;3.38;;;;;;;;;;5048475;27;100152;-75
2024/01/18 04:24:59;;;;;;;3.85;3.30;;;;;;;;;;5047807;27;100097;-74
2024/01/18 04:27:25;;;;;;;3.08;2.80;;;;;;;;;;5067063;27;99616;-74
2024/01/18 04:29:52;;;;;;;5.03;3.65;;;;;;;;;;5067355;27;99818;-74
2024/01/18 04:32:18;;;;;;;3.92;3.35;;;;;;;;;;5067088;27;99925;-76
2024/01/18 04:34:45;;;;;;;3.13;2.90;;;;;;;;;;5062008;27;101170;-75
2024/01/18 04:37:11;;;;;;;3.13;2.72;;;;;;;;;;5054308;27;99983;-74
2024/01/18 04:39:37;;;;;;;4.60;2.83;;;;;;;;;;5064858;27;98935;-75
2024/01/18 04:42:04;;;;;;;16.42;4.95;;;;;;;;;;5060393;27;100503;-76
2024/01/18 04:44:31;;;;;;;9.20;4.05;;;;;;;;;;5056936;27;100378;-74
2024/01/18 04:46:57;;;;;;;6.53;2.78;;;;;;;;;;5066928;27;99900;-74
2024/01/18 04:49:24;;;;;;;5.70;3.00;;;;;;;;;;5068600;27;100153;-75
2024/01/18 04:51:51;;;;;;;3.35;3.05;;;;;;;;;;5067487;27;100040;-75
2024/01/18 04:54:17;;;;;;;6.25;2.72;;;;;;;;;;5048856;27;100245;-75
2024/01/18 04:56:44;;;;;;;4.78;2.88;;;;;;;;;;5057520;27;101137;-75
2024/01/18 04:59:10;;;;;;;6.45;3.45;;;;;;;;;;5061723;27;99933;-75
2024/01/18 05:01:39;;;;;;;4.70;3.40;;;;;;;;;;5065041;27;100253;-74
2024/01/18 05:04:06;;;;;;;3.30;2.95;;;;;;;;;;5067091;27;99890;-74
2024/01/18 05:06:32;;;;;;;8.00;2.75;;;;;;;;;;5065756;27;100158;-74
2024/01/18 05:08:59;;;;;;;8.38;3.08;;;;;;;;;;5049824;27;100045;-75
2024/01/18 05:11:26;;;;;;;4.00;2.92;;;;;;;;;;5066439;27;99873;-75
2024/01/18 05:13:52;;;;;;;3.92;2.58;;;;;;;;;;5066617;27;100188;-75
2024/01/18 05:16:19;;;;;;;3.45;3.15;;;;;;;;;;5065939;27;99917;-75
2024/01/18 05:18:46;;;;;;;4.28;3.03;;;;;;;;;;5066742;27;99488;-75
2024/01/18 05:21:12;;;;;;;3.75;2.95;;;;;;;;;;5065542;27;100201;-75
2024/01/18 05:23:39;;;;;;;4.25;2.85;;;;;;;;;;5064933;27;100066;-74
2024/01/18 05:26:05;;;;;;;4.88;3.30;;;;;;;;;;5063276;27;100749;-75
2024/01/18 05:28:32;;;;;;;9.60;2.78;;;;;;;;;;5066244;27;100104;-75
2024/01/18 05:30:58;;;;;;;9.27;3.20;;;;;;;;;;5064966;27;99976;-75
2024/01/18 05:33:25;;;;;;;3.00;2.80;;;;;;;;;;5070313;27;100145;-74
2024/01/18 05:35:52;;;;;;;7.05;3.95;;;;;;;;;;5055209;27;100193;-75
2024/01/18 05:38:18;;;;;;;4.55;3.20;;;;;;;;;;5055729;27;99240;-75
2024/01/18 05:40:45;;;;;;;3.30;2.53;;;;;;;;;;5054218;27;99505;-75
2024/01/18 05:43:11;;;;;;;4.53;3.30;;;;;;;;;;5046232;27;100033;-75
2024/01/18 05:45:38;;;;;;;3.65;3.35;;;;;;;;;;5059122;27;100567;-76
2024/01/18 05:48:05;;;;;;;6.70;3.83;;;;;;;;;;5051078;27;100344;-76
2024/01/18 05:50:32;;;;;;;3.00;2.80;;;;;;;;;;5066035;27;99963;-75
2024/01/18 05:53:01;;;;;;;2.53;2.42;;;;;;;;;;5058020;27;100382;-76
2024/01/18 05:55:27;;;;;;;3.35;3.05;;;;;;;;;;5052120;27;100544;-74
2024/01/18 05:57:53;;;;;;;4.43;2.80;;;;;;;;;;5050381;27;98966;-75
2024/01/18 06:00:20;;;;;;;4.30;3.72;;;;;;;;;;5045228;27;99424;-75
2024/01/18 06:02:47;;;;;;;3.60;3.38;;;;;;;;;;5051522;27;100054;-75
2024/01/18 06:05:13;;;;;;;3.33;2.95;;;;;;;;;;5061912;27;99933;-75
2024/01/18 06:07:40;;;;;;;7.40;3.10;;;;;;;;;;5046478;27;100223;-75
2024/01/18 06:10:07;;;;;;;6.25;3.13;;;;;;;;;;5059409;27;99213;-75
2024/01/18 06:12:33;;;;;;;3.88;2.95;;;;;;;;;;5062009;27;99456;-76
2024/01/18 06:15:00;;;;;;;13.77;3.30;;;;;;;;;;5069228;27;99296;-75
2024/01/18 06:17:27;;;;;;;3.00;2.78;;;;;;;;;;5046446;27;99922;-74
2024/01/18 06:19:55;;;;;;;3.10;2.78;;;;;;;;;;5063382;27;100177;-75
2024/01/18 06:22:22;;;;;;;2.88;2.70;;;;;;;;;;5065009;27;99939;-73
2024/01/18 06:24:48;;;;;;;2.85;2.67;;;;;;;;;;5064611;27;99466;-75
2024/01/18 06:27:15;;;;;;;8.25;3.25;;;;;;;;;;5064222;27;100221;-75
2024/01/18 06:29:41;;;;;;;3.22;3.03;;;;;;;;;;5051953;27;100003;-75
2024/01/18 06:32:07;;;;;;;2.85;2.60;;;;;;;;;;5048587;27;99270;-75
2024/01/18 06:34:34;;;;;;;4.47;3.63;;;;;;;;;;5063386;27;99222;-75
2024/01/18 06:37:01;;;;;;;7.93;2.45;;;;;;;;;;5048691;27;99948;-75
2024/01/18 06:39:29;;;;;;;8.55;3.53;;;;;;;;;;5054408;27;99157;-74
2024/01/18 06:41:56;;;;;;;4.72;3.17;;;;;;;;;;5063609;27;100464;-77
2024/01/18 06:44:23;;;;;;;3.58;2.80;;;;;;;;;;5058050;27;99913;-75
2024/01/18 06:46:49;;;;;;;10.32;3.25;;;;;;;;;;5052346;27;100043;-73
2024/01/18 06:49:17;;;;;;;3.13;2.92;;;;;;;;;;5070002;27;100233;-73
2024/01/18 06:51:43;;;;;;;7.53;3.17;;;;;;;;;;5071791;27;99910;-74
2024/01/18 06:54:10;;;;;;;3.47;3.20;;;;;;;;;;5069807;27;99888;-75
2024/01/18 06:56:37;;;;;;;3.50;3.17;;;;;;;;;;5065236;27;100206;-75
2024/01/18 06:59:05;;;;;;;10.02;4.35;;;;;;;;;;5066984;27;100132;-74
2024/01/18 07:01:33;;;;;;;5.88;3.25;;;;;;;;;;5061241;27;100096;-75
2024/01/18 07:03:59;;;;;;;9.38;3.60;;;;;;;;;;5066087;27;100553;-75
2024/01/18 07:06:26;;;;;;;10.02;2.78;;;;;;;;;;5064536;27;100283;-76
2024/01/18 07:08:52;;;;;;;3.58;3.38;;;;;;;;;;5065034;27;99962;-75
2024/01/18 07:11:19;;;;;;;3.47;3.10;;;;;;;;;;5050997;27;99888;-76
2024/01/18 07:13:46;;;;;;;6.85;3.85;;;;;;;;;;5062714;27;100388;-76
2024/01/18 07:16:12;;;;;;;2.85;2.60;;;;;;;;;;5057663;27;100129;-75
2024/01/18 07:18:39;;;;;;;3.85;3.55;;;;;;;;;;5048234;27;100324;-75
2024/01/18 07:21:06;;;;;;;9.02;3.67;;;;;;;;;;5061227;27;100492;-75
2024/01/18 07:23:32;;;;;;;8.75;3.17;;;;;;;;;;5044280;27;99915;-75
2024/01/18 07:25:59;;;;;;;10.98;2.63;;;;;;;;;;5044422;27;100426;-76
2024/01/18 07:28:26;;;;;;;3.30;2.97;;;;;;;;;;5045088;27;99994;-75
2024/01/18 07:30:52;;;;;;;3.40;3.20;;;;;;;;;;5053506;27;100285;-74
2024/01/18 07:33:19;;;;;;;2.78;2.58;;;;;;;;;;5066785;27;100238;-74
2024/01/18 07:35:45;;;;;;;6.60;2.92;;;;;;;;;;5068896;27;99909;-75
2024/01/18 07:38:13;;;;;;;6.55;2.67;;;;;;;;;;5067552;27;100218;-75
2024/01/18 07:40:40;;;;;;;6.68;4.38;;;;;;;;;;5066304;27;101034;-74
2024/01/18 07:43:07;;;;;;;5.53;2.60;;;;;;;;;;5062652;27;99829;-74
2024/01/18 07:45:33;;;;;;;3.05;2.85;;;;;;;;;;5059722;27;100644;-75
2024/01/18 07:48:00;;;;;;;6.63;3.95;;;;;;;;;;5060550;27;100712;-75
2024/01/18 07:50:27;;;;;;;3.83;3.53;;;;;;;;;;5061999;27;100267;-75
2024/01/18 07:53:02;;;;;;;4.40;3.35;;;;;;;;;;5059797;27;99811;-74
2024/01/18 07:55:29;;;;;;;7.38;4.78;;;;;;;;;;5048255;27;100612;-75
2024/01/18 07:57:55;;;;;;;4.75;4.25;;;;;;;;;;5047078;27;99838;-75
2024/01/18 08:00:22;;;;;;;6.53;4.20;;;;;;;;;;5049008;27;100363;-74
2024/01/18 08:02:48;;;;;;;3.10;2.90;;;;;;;;;;5064958;27;100058;-75
2024/01/18 08:05:15;;;;;;;8.40;3.50;;;;;;;;;;5060755;27;99868;-75
2024/01/18 08:07:41;;;;;;;3.28;3.08;;;;;;;;;;5068920;27;100121;-74
2024/01/18 08:10:11;;;;;;;3.95;3.40;;;;;;;;;;5068302;27;99088;-75
2024/01/18 08:12:37;;;;;;;5.22;3.35;;;;;;;;;;5067850;27;100351;-74
2024/01/18 08:15:04;;;;;;;4.60;3.90;;;;;;;;;;5067707;27;100097;-74
2024/01/18 08:17:31;;;;;;;6.70;4.20;;;;;;;;;;5068360;27;100974;-75
2024/01/18 08:19:57;;;;;;;9.65;4.07;;;;;;;;;;5063322;27;100352;-75
2024/01/18 08:22:24;;;;;;;16.23;3.75;;;;;;;;;;5068203;27;100157;-75
2024/01/18 08:24:50;;;;;;;4.90;2.83;;;;;;;;;;5071638;27;99977;-75
2024/01/18 08:27:17;;;;;;;9.95;4.28;;;;;;;;;;5058573;27;99872;-74
2024/01/18 08:29:44;;;;;;;5.72;4.10;;;;;;;;;;5049595;27;100086;-76
2024/01/18 08:32:10;;;;;;;6.18;3.35;;;;;;;;;;5047138;27;99507;-75
2024/01/18 08:34:36;;;;;;;3.17;2.97;;;;;;;;;;5052790;27;100019;-75
2024/01/18 08:37:04;;;;;;;7.75;3.00;;;;;;;;;;5057894;27;100233;-75
2024/01/18 08:39:30;;;;;;;3.63;3.33;;;;;;;;;;5051179;27;101083;-75
2024/01/18 08:41:59;;;;;;;5.80;4.15;;;;;;;;;;5058407;27;100393;-75
2024/01/18 08:44:26;;;;;;;4.80;3.45;;;;;;;;;;5057763;27;100143;-75
2024/01/18 08:46:53;;;;;;;4.18;3.10;;;;;;;;;;5062271;27;100400;-75
2024/01/18 08:49:24;;;;;;;3.20;2.83;;;;;;;;;;5052836;27;100080;-76
2024/01/18 08:51:52;;;;;;;5.63;3.63;;;;;;;;;;5056771;27;100299;-74
2024/01/18 08:54:20;;;;;;;3.50;3.22;;;;;;;;;;5057992;27;100624;-75
2024/01/18 08:56:47;;;;;;;3.88;3.40;;;;;;;;;;5058990;27;99930;-75
2024/01/18 08:59:13;;;;;;;24.75;5.32;;;;;;;;;;5060981;27;100117;-75
2024/01/18 09:01:40;;;;;;;5.72;3.42;;;;;;;;;;5053750;27;100310;-74
2024/01/18 09:04:06;;;;;;;5.30;3.53;;;;;;;;;;5051214;27;101091;-74
2024/01/18 09:06:33;;;;;;;6.18;4.03;;;;;;;;;;5055990;27;100523;-74
2024/01/18 09:08:59;;;;;;;6.53;4.75;;;;;;;;;;5057874;27;99894;-75
2024/01/18 09:11:25;;;;;;;9.50;3.75;;;;;;;;;;5055157;27;100394;-74
2024/01/18 09:13:52;;;;;;;5.20;3.33;;;;;;;;;;5060133;27;100030;-76
2024/01/18 09:16:18;;;;;;;7.03;3.33;;;;;;;;;;5058826;27;99973;-76
2024/01/18 09:18:45;;;;;;;5.70;3.25;;;;;;;;;;5061781;27;100195;-73
2024/01/18 09:21:31;;;;;;;4.85;3.55;;;;;;;;;;5056169;27;100512;-75
2024/01/18 09:23:57;;;;;;;8.00;3.22;;;;;;;;;;5048491;27;99351;-76
2024/01/18 09:26:24;;;;;;;4.25;3.80;;;;;;;;;;5064507;27;100410;-76
2024/01/18 09:28:50;;;;;;;3.40;3.17;;;;;;;;;;5066111;27;99935;-76
2024/01/18 09:31:17;;;;;;;7.13;4.53;;;;;;;;;;5067601;27;100558;-75
2024/01/18 09:34:00;;;;;;;6.10;3.40;;;;;;;;;;5051016;27;100065;-76
2024/01/18 09:36:27;;;;;;;3.00;2.65;;;;;;;;;;5061938;27;100077;-77
2024/01/18 09:38:53;;;;;;;3.03;2.83;;;;;;;;;;5051000;27;100355;-76
2024/01/18 09:41:20;;;;;;;15.63;3.15;;;;;;;;;;5053386;27;98801;-77
2024/01/18 09:43:54;;;;;;;6.57;4.57;;;;;;;;;;5053785;27;99003;-76
2024/01/18 09:46:22;;;;;;;6.22;3.33;;;;;;;;;;5049278;27;98640;-75
2024/01/18 09:48:48;;;;;;;8.82;3.50;;;;;;;;;;5046009;27;99008;-75
2024/01/18 09:51:15;;;;;;;7.63;2.55;;;;;;;;;;5048264;27;99021;-75
2024/01/18 09:53:48;;;;;;;7.40;3.30;;;;;;;;;;5064901;27;100885;-76
2024/01/18 09:56:19;;;;;;;9.80;2.92;;;;;;;;;;5057096;27;100495;-76
2024/01/18 09:58:46;;;;;;;6.32;3.55;;;;;;;;;;5059302;27;100176;-76
2024/01/18 10:01:18;;;;;;;3.22;2.95;;;;;;;;;;5066604;27;99988;-77
2024/01/18 10:03:45;;;;;;;4.80;3.05;;;;;;;;;;5067686;27;100565;-75
2024/01/18 10:06:12;;;;;;;6.55;2.53;;;;;;;;;;5066475;27;98513;-76
2024/01/18 10:08:39;;;;;;;3.15;2.90;;;;;;;;;;5066277;27;98969;-76
2024/01/18 10:11:06;;;;;;;2.60;2.40;;;;;;;;;;5061088;27;100227;-75
2024/01/18 10:13:47;;;;;;;2.55;2.20;;;;;;;;;;5060786;27;100434;-76
2024/01/18 10:16:24;;;;;;;2.97;2.47;;;;;;;;;;5069517;27;98576;-76
2024/01/18 10:18:50;;;;;;;4.03;2.50;;;;;;;;;;5064952;27;103036;-78
2024/01/18 10:21:17;;;;;;;3.88;2.95;;;;;;;;;;5066138;27;99963;-76
2024/01/18 10:23:44;;;;;;;7.00;1.95;;;;;;;;;;5065704;27;99968;-76
2024/01/18 10:26:10;;;;;;;4.80;2.45;;;;;;;;;;5065206;27;99302;-78
2024/01/18 10:28:36;;;;;;;5.65;2.47;;;;;;;;;;5065894;27;99007;-76
2024/01/18 10:31:03;;;;;;;9.07;3.90;;;;;;;;;;5058681;27;99902;-76
2024/01/18 10:33:30;;;;;;;2.92;2.15;;;;;;;;;;5051288;27;100122;-76
2024/01/18 10:35:57;;;;;;;9.68;2.40;;;;;;;;;;5069929;27;99997;-76
2024/01/18 10:38:29;;;;;;;1.85;1.75;;;;;;;;;;5065571;27;99173;-76
2024/01/18 10:40:59;;;;;;;3.95;2.00;;;;;;;;;;5063494;27;100133;-72
2024/01/18 10:43:29;;;;;;;2.05;1.95;;;;;;;;;;5047171;27;100291;-76
2024/01/18 10:45:59;;;;;;;3.63;2.25;;;;;;;;;;5060799;27;100490;-75
2024/01/18 10:48:26;;;;;;;2.50;2.30;;;;;;;;;;5065561;27;100161;-75
2024/01/18 10:50:53;;;;;;;2.53;2.33;;;;;;;;;;5050562;27;99945;-74
2024/01/18 10:53:20;;;;;;;6.38;2.35;;;;;;;;;;5064952;27;100153;-74
2024/01/18 10:55:47;;;;;;;1.95;1.85;;;;;;;;;;5065566;27;99041;-74
2024/01/18 10:58:13;;;;;;;16.73;2.88;;;;;;;;;;5065131;27;99741;-74
2024/01/18 11:00:40;;;;;;;6.47;1.92;;;;;;;;;;5050314;27;99972;-75
2024/01/18 11:03:07;;;;;;;3.38;2.10;;;;;;;;;;5066099;27;99943;-74
2024/01/18 11:05:34;;;;;;;2.35;1.77;;;;;;;;;;5063250;27;100315;-71
2024/01/18 11:08:03;;;;;;;2.22;2.00;;;;;;;;;;5057676;27;99909;-74
2024/01/18 11:10:30;;;;;;;6.47;2.33;;;;;;;;;;5067104;27;99596;-73
2024/01/18 11:12:57;;;;;;;2.13;1.95;;;;;;;;;;5068937;27;99536;-74
2024/01/18 11:15:24;;;;;;;4.45;2.33;;;;;;;;;;5058172;27;100389;-74
2024/01/18 11:18:00;;;;;;;3.13;2.08;;;;;;;;;;5060380;27;99872;-75
2024/01/18 11:20:27;;;;;;;8.57;1.92;;;;;;;;;;5070941;27;100181;-74
2024/01/18 11:22:58;;;;;;;2.13;2.03;;;;;;;;;;5068620;27;99860;-74
2024/01/18 11:25:26;;;;;;;11.18;1.98;;;;;;;;;;5069488;27;99613;-74
2024/01/18 11:27:53;;;;;;;2.13;2.03;;;;;;;;;;5068925;27;99938;-74
2024/01/18 11:30:28;;;;;;;5.35;2.08;;;;;;;;;;5052008;27;100381;-74
2024/01/18 11:32:55;;;;;;;7.28;2.40;;;;;;;;;;5049871;27;100167;-74
2024/01/18 11:35:23;;;;;;;2.85;1.88;;;;;;;;;;5055634;27;99208;-75
2024/01/18 11:37:50;;;;;;;2.00;1.90;;;;;;;;;;5049573;27;100044;-74
2024/01/18 11:40:16;;;;;;;2.72;1.90;;;;;;;;;;5053295;27;100102;-75
2024/01/18 11:42:45;;;;;;;49.90;18.88;;;;;;;;;;5052769;27;100115;-74
2024/01/18 11:45:15;;;;;;;15.45;4.78;;;;;;;;;;5051555;27;100403;-76
2024/01/18 11:47:42;;;;;;;10.90;7.80;;;;;;;;;;5051639;27;99902;-75
2024/01/18 11:50:11;;;;;;;2.47;2.28;;;;;;;;;;5065375;27;99942;-75
2024/01/18 11:52:39;;;;;;;4.78;2.30;;;;;;;;;;5062418;27;100310;-75
2024/01/18 11:55:06;;;;;;;13.85;7.13;;;;;;;;;;5059939;27;100210;-75
2024/01/18 11:57:32;;;;;;;3.85;2.30;;;;;;;;;;5057302;27;100600;-74
2024/01/18 12:00:00;;;;;;;2.22;2.03;;;;;;;;;;5051130;27;100490;-75
2024/01/18 12:02:28;;;;;;;9.27;5.00;;;;;;;;;;5064178;27;99965;-75
2024/01/18 12:04:55;;;;;;;14.10;2.17;;;;;;;;;;5059019;27;99913;-76
2024/01/18 12:07:22;;;;;;;3.30;1.60;;;;;;;;;;5054941;27;100120;-76
2024/01/18 12:09:48;;;;;;;3.58;1.67;;;;;;;;;;5062632;27;99852;-75
2024/01/18 12:12:15;;;;;;;1.77;1.38;;;;;;;;;;5049969;27;100853;-75
2024/01/18 12:14:43;;;;;;;3.05;1.50;;;;;;;;;;5063505;27;100140;-75
2024/01/18 12:17:10;;;;;;;3.80;1.83;;;;;;;;;;5066457;27;99518;-74
2024/01/18 12:19:37;;;;;;;1.42;1.33;;;;;;;;;;5065373;27;99876;-74
2024/01/18 12:22:06;;;;;;;2.47;1.00;;;;;;;;;;5060300;27;99946;-76
2024/01/18 12:24:33;;;;;;;3.20;1.20;;;;;;;;;;5057126;27;100178;-76
2024/01/18 12:26:59;;;;;;;3.63;1.33;;;;;;;;;;5056428;27;99138;-75
2024/01/18 12:29:26;;;;;;;2.42;1.20;;;;;;;;;;5055803;27;99754;-75
2024/01/18 12:31:54;;;;;;;3.08;1.55;;;;;;;;;;5052403;27;100267;-75
2024/01/18 12:34:20;;;;;;;4.63;1.50;;;;;;;;;;5059665;27;99990;-75
2024/01/18 12:36:47;;;;;;;2.63;0.98;;;;;;;;;;5064173;27;100078;-76
2024/01/18 12:39:17;;;;;;;2.30;1.30;;;;;;;;;;5058534;27;99431;-77
2024/01/18 12:41:44;;;;;;;1.20;1.17;;;;;;;;;;5049898;27;100161;-75
2024/01/18 12:44:11;;;;;;;2.60;1.60;;;;;;;;;;5048979;27;100243;-75
2024/01/18 12:46:39;;;;;;;2.67;0.95;;;;;;;;;;5059597;27;100902;-76
2024/01/18 12:49:06;;;;;;;3.45;1.67;;;;;;;;;;5053960;27;101006;-76
2024/01/18 12:51:33;;;;;;;1.08;0.77;;;;;;;;;;5047212;27;100157;-76
2024/01/18 12:54:00;;;;;;;2.25;1.33;;;;;;;;;;5050643;27;100102;-74
2024/01/18 12:56:27;;;;;;;7.43;1.25;;;;;;;;;;5058441;27;100023;-76
2024/01/18 12:58:53;;;;;;;1.58;1.48;;;;;;;;;;5058256;27;100951;-73
2024/01/18 13:01:26;;;;;;;5.63;1.95;;;;;;;;;;5051596;27;99992;-75
2024/01/18 13:04:07;;;;;;;9.93;1.85;;;;;;;;;;5053160;27;99959;-75
2024/01/18 13:06:34;;;;;;;1.85;1.33;;;;;;;;;;5067421;27;100544;-75
2024/01/18 13:09:14;;;;;;;6.03;1.60;;;;;;;;;;5064181;27;99943;-75
2024/01/18 13:11:40;;;;;;;0.90;0.90;;;;;;;;;;5059760;27;101038;-76
2024/01/18 13:14:07;;;;;;;1.52;1.45;;;;;;;;;;5046251;27;100139;-75
2024/01/18 13:16:33;;;;;;;1.30;1.30;;;;;;;;;;5053128;27;99930;-76
2024/01/18 13:19:01;;;;;;;1.95;1.30;;;;;;;;;;5061574;27;100203;-76
2024/01/18 13:21:28;;;;;;;3.83;1.30;;;;;;;;;;5060721;27;99989;-76
2024/01/18 13:23:58;;;;;;;1.05;1.00;;;;;;;;;;5063290;27;100147;-75
2024/01/18 13:26:24;;;;;;;12.02;1.88;;;;;;;;;;5056882;27;100375;-75
2024/01/18 13:28:51;;;;;;;1.98;1.52;;;;;;;;;;5066033;27;100512;-76
2024/01/18 13:31:19;;;;;;;2.53;1.27;;;;;;;;;;5067514;27;99841;-77
2024/01/18 13:33:45;;;;;;;3.33;1.02;;;;;;;;;;5062730;27;100113;-76
2024/01/18 13:36:12;;;;;;;1.83;0.90;;;;;;;;;;5065770;27;100087;-78
2024/01/18 13:38:41;;;;;;;1.50;1.40;;;;;;;;;;5067341;27;100290;-78
2024/01/18 13:41:09;;;;;;;5.65;1.52;;;;;;;;;;5067056;27;100092;-77
2024/01/18 13:43:35;;;;;;;1.17;1.13;;;;;;;;;;5066484;27;100007;-78
2024/01/18 13:46:01;;;;;;;0.90;0.90;;;;;;;;;;5069375;27;100502;-77
2024/01/18 13:48:28;;;;;;;2.90;0.90;;;;;;;;;;5070873;27;99951;-78
2024/01/18 13:50:57;;;;;;;1.25;1.00;;;;;;;;;;5066457;27;99664;-77
2024/01/18 13:53:24;;;;;;;3.72;1.30;;;;;;;;;;5070439;27;98908;-77
2024/01/18 13:55:51;;;;;;;4.38;1.58;;;;;;;;;;5067219;27;99411;-78
2024/01/18 13:58:18;;;;;;;9.77;1.38;;;;;;;;;;5066178;27;100542;-77
2024/01/18 14:00:44;;;;;;;3.30;1.10;;;;;;;;;;5066467;27;99922;-77
2024/01/18 14:03:11;;;;;;;5.43;1.27;;;;;;;;;;5066123;27;100916;-77
2024/01/18 14:05:38;;;;;;;2.53;1.38;;;;;;;;;;5066562;27;100569;-77
2024/01/18 14:08:05;;;;;;;1.90;0.95;;;;;;;;;;5072673;27;99889;-77
2024/01/18 14:10:31;;;;;;;6.75;1.40;;;;;;;;;;5066283;27;99681;-77
2024/01/18 14:12:58;;;;;;;4.45;0.90;;;;;;;;;;5066515;27;100491;-78
2024/01/18 14:15:25;;;;;;;1.58;1.48;;;;;;;;;;5070070;27;99890;-78
2024/01/18 14:17:51;;;;;;;2.67;1.02;;;;;;;;;;5066046;27;99523;-78
2024/01/18 14:20:19;;;;;;;1.25;0.98;;;;;;;;;;5066588;27;99780;-78
2024/01/18 14:22:45;;;;;;;0.90;0.90;;;;;;;;;;5066472;27;100052;-78
2024/01/18 14:25:12;;;;;;;0.93;0.77;;;;;;;;;;5065071;27;101077;-76
2024/01/18 14:27:38;;;;;;;4.40;0.90;;;;;;;;;;5066611;27;100057;-78
2024/01/18 14:30:07;;;;;;;0.88;0.77;;;;;;;;;;5066052;27;99982;-76
2024/01/18 14:32:34;;;;;;;2.38;0.90;;;;;;;;;;5065733;27;100147;-77